createdAt,value
2022-09-28T00:02:08.575Z,1.38
2022-09-28T00:04:36.362Z,1.00
2022-09-28T00:07:04.028Z,1.17
2022-09-28T00:09:31.733Z,1.33
2022-09-28T00:11:59.514Z,1.20
2022-09-28T00:14:27.647Z,0.95
2022-09-28T00:16:56.661Z,1.10
2022-09-28T00:19:24.330Z,1.25
2022-09-28T00:21:51.986Z,0.90
2022-09-28T00:24:24.011Z,0.63
2022-09-28T00:26:55.235Z,0.77
2022-09-28T00:29:24.165Z,0.93
2022-09-28T00:31:53.337Z,1.00
2022-09-28T00:34:22.649Z,1.20
2022-09-28T00:36:50.402Z,1.10
2022-09-28T00:39:18.454Z,1.13
2022-09-28T00:41:47.143Z,1.00
2022-09-28T00:44:38.843Z,1.13
2022-09-28T00:47:18.387Z,0.75
2022-09-28T00:49:49.626Z,1.00
2022-09-28T00:52:20.020Z,1.50
2022-09-28T00:54:48.419Z,1.25
2022-09-28T00:57:17.108Z,1.20
2022-09-28T00:59:44.842Z,1.50
2022-09-28T01:02:12.646Z,1.60
2022-09-28T01:04:40.449Z,1.35
2022-09-28T01:07:10.051Z,1.73
2022-09-28T01:09:39.685Z,1.60
2022-09-28T01:12:08.582Z,1.77
2022-09-28T01:14:36.142Z,1.60
2022-09-28T01:17:07.759Z,1.70
2022-09-28T01:20:00.183Z,1.83
2022-09-28T01:22:37.484Z,1.60
2022-09-28T01:25:11.254Z,1.40
2022-09-28T01:27:42.263Z,1.45
2022-09-28T01:30:11.692Z,1.52
2022-09-28T01:32:43.499Z,1.50
2022-09-28T01:35:12.774Z,1.23
2022-09-28T01:37:46.601Z,1.60
2022-09-28T01:40:14.909Z,1.77
2022-09-28T01:42:45.856Z,1.67
2022-09-28T01:45:16.266Z,1.92
2022-09-28T01:47:44.298Z,1.85
2022-09-28T01:50:13.798Z,1.70
2022-09-28T01:52:45.517Z,1.90
2022-09-28T01:55:14.707Z,1.80
2022-09-28T01:57:46.924Z,2.40
2022-09-28T02:00:15.808Z,1.80
2022-09-28T02:02:48.323Z,1.67
2022-09-28T02:05:21.652Z,2.42
2022-09-28T02:07:53.789Z,2.00
2022-09-28T02:10:23.884Z,2.30
2022-09-28T02:12:55.629Z,2.00
2022-09-28T02:15:25.920Z,2.00
2022-09-28T02:17:53.561Z,3.05
2022-09-28T02:20:22.145Z,2.30
2022-09-28T02:22:50.668Z,2.50
2022-09-28T02:25:23.982Z,2.20
2022-09-28T02:27:55.164Z,2.00
2022-09-28T02:30:23.258Z,2.00
2022-09-28T02:32:53.543Z,1.70
2022-09-28T02:35:21.561Z,2.17
2022-09-28T02:37:50.023Z,2.20
2022-09-28T02:40:19.388Z,3.13
2022-09-28T02:42:59.206Z,1.85
2022-09-28T02:45:35.129Z,1.95
2022-09-28T02:48:09.360Z,1.08
2022-09-28T02:50:40.589Z,1.30
2022-09-28T02:53:16.268Z,1.63
2022-09-28T02:55:53.913Z,2.45
2022-09-28T02:58:28.361Z,1.70
2022-09-28T03:00:59.185Z,1.50
2022-09-28T03:03:32.165Z,1.40
2022-09-28T03:06:03.312Z,2.03
2022-09-28T03:08:39.724Z,1.42
2022-09-28T03:11:14.800Z,1.40
2022-09-28T03:13:44.579Z,1.52
2022-09-28T03:16:13.211Z,1.60
2022-09-28T03:18:42.155Z,1.70
2022-09-28T03:21:11.903Z,1.63
2022-09-28T03:23:39.640Z,1.65
2022-09-28T03:26:08.685Z,1.60
2022-09-28T03:28:36.844Z,1.63
2022-09-28T03:31:07.474Z,1.67
2022-09-28T03:33:35.395Z,1.42
2022-09-28T03:36:03.043Z,1.60
2022-09-28T03:38:31.413Z,1.63
2022-09-28T03:41:00.494Z,1.83
2022-09-28T03:43:33.695Z,1.80
2022-09-28T03:46:03.559Z,2.13
2022-09-28T03:48:36.818Z,2.05
2022-09-28T03:51:05.398Z,1.80
2022-09-28T03:53:33.820Z,2.17
2022-09-28T03:56:06.051Z,2.35
2022-09-28T03:58:34.277Z,2.40
2022-09-28T04:01:02.752Z,2.33
2022-09-28T04:03:30.434Z,1.85
2022-09-28T04:05:59.806Z,2.60
2022-09-28T04:08:27.543Z,2.40
2022-09-28T04:10:56.821Z,2.25
2022-09-28T04:13:24.520Z,2.38
2022-09-28T04:15:55.994Z,2.38
2022-09-28T04:18:23.840Z,3.20
2022-09-28T04:21:17.545Z,2.22
2022-09-28T04:23:48.793Z,2.05
2022-09-28T04:26:17.613Z,2.60
2022-09-28T04:29:06.553Z,2.28
2022-09-28T04:31:38.633Z,2.20
2022-09-28T04:34:06.322Z,2.50
2022-09-28T04:36:35.635Z,2.42
2022-09-28T04:39:03.191Z,2.40
2022-09-28T04:41:32.476Z,1.98
2022-09-28T04:44:00.089Z,2.40
2022-09-28T04:46:27.827Z,2.25
2022-09-28T04:49:18.675Z,1.83
2022-09-28T04:51:54.513Z,1.77
2022-09-28T04:54:22.066Z,2.17
2022-09-28T04:56:49.688Z,1.83
2022-09-28T04:59:17.342Z,1.73
2022-09-28T05:01:45.492Z,1.90
2022-09-28T05:04:51.237Z,2.10
2022-09-28T05:07:37.132Z,2.38
2022-09-28T05:10:07.115Z,2.15
2022-09-28T05:12:35.184Z,1.90
2022-09-28T05:15:03.793Z,2.33
2022-09-28T05:17:31.733Z,2.22
2022-09-28T05:20:10.475Z,1.70
2022-09-28T05:22:39.531Z,1.40
2022-09-28T05:25:09.262Z,2.10
2022-09-28T05:27:48.550Z,1.95
2022-09-28T05:30:38.298Z,1.98
2022-09-28T05:33:29.559Z,1.70
2022-09-28T05:36:10.334Z,1.40
2022-09-28T05:38:39.393Z,1.95
2022-09-28T05:41:07.288Z,1.50
2022-09-28T05:43:35.194Z,1.92
2022-09-28T05:46:05.160Z,1.85
2022-09-28T05:48:34.333Z,2.10
2022-09-28T05:51:01.935Z,2.58
2022-09-28T05:53:29.613Z,1.00
2022-09-28T05:56:00.637Z,1.90
2022-09-28T05:58:31.104Z,2.53
2022-09-28T06:01:00.066Z,2.83
2022-09-28T06:03:28.422Z,2.22
2022-09-28T06:05:56.057Z,1.92
2022-09-28T06:08:25.015Z,2.03
2022-09-28T06:11:13.921Z,2.22
2022-09-28T06:13:42.020Z,2.20
2022-09-28T06:16:10.523Z,1.92
2022-09-28T06:18:38.180Z,2.40
2022-09-28T06:21:14.728Z,1.88
2022-09-28T06:23:49.048Z,2.60
2022-09-28T06:26:19.015Z,2.33
2022-09-28T06:28:47.086Z,2.67
2022-09-28T06:31:15.728Z,2.00
2022-09-28T06:33:49.407Z,2.08
2022-09-28T06:36:18.518Z,2.25
2022-09-28T06:38:46.817Z,2.15
2022-09-28T06:41:15.629Z,2.33
2022-09-28T06:43:46.474Z,2.00
2022-09-28T06:46:14.337Z,2.03
2022-09-28T06:48:42.621Z,2.22
2022-09-28T06:51:13.422Z,1.92
2022-09-28T06:53:56.459Z,2.22
2022-09-28T06:57:02.311Z,2.55
2022-09-28T06:59:31.914Z,2.25
2022-09-28T07:02:01.137Z,2.58
2022-09-28T07:04:47.399Z,2.25
2022-09-28T07:07:33.443Z,2.55
2022-09-28T07:10:07.457Z,1.90
2022-09-28T07:12:59.072Z,2.00
2022-09-28T07:15:38.080Z,1.92
2022-09-28T07:18:06.578Z,1.50
2022-09-28T07:20:45.779Z,2.50
2022-09-28T07:23:19.784Z,2.20
2022-09-28T07:26:08.639Z,2.08
2022-09-28T07:28:55.897Z,2.67
2022-09-28T07:31:55.581Z,2.28
2022-09-28T07:34:43.684Z,1.85
2022-09-28T07:37:31.612Z,2.38
2022-09-28T07:40:16.826Z,2.30
2022-09-28T07:42:44.495Z,2.38
2022-09-28T07:45:13.685Z,2.30
2022-09-28T07:47:42.650Z,2.22
2022-09-28T07:50:33.681Z,1.92
2022-09-28T07:53:09.859Z,2.05
2022-09-28T07:56:06.995Z,2.78
2022-09-28T07:58:42.034Z,1.27
2022-09-28T08:01:49.442Z,1.88
2022-09-28T08:04:20.514Z,1.70
2022-09-28T08:06:48.283Z,1.88
2022-09-28T08:09:16.314Z,1.90
2022-09-28T08:12:07.717Z,2.38
2022-09-28T08:14:51.039Z,0.80
2022-09-28T08:17:48.425Z,1.73
2022-09-28T08:20:37.186Z,1.70
2022-09-28T08:23:05.035Z,1.95
2022-09-28T08:25:33.303Z,1.27
2022-09-28T08:28:03.241Z,1.80
2022-09-28T08:30:33.647Z,1.77
2022-09-28T08:33:26.972Z,1.67
2022-09-28T08:36:28.268Z,2.80
2022-09-28T08:39:30.719Z,1.42
2022-09-28T08:42:33.466Z,2.20
2022-09-28T08:45:24.331Z,1.52
2022-09-28T08:49:01.280Z,1.13
2022-09-28T08:51:54.132Z,1.67
2022-09-28T08:54:34.514Z,1.75
2022-09-28T08:57:04.590Z,0.90
2022-09-28T08:59:37.433Z,2.03
2022-09-28T09:02:12.680Z,1.52
2022-09-28T09:04:40.352Z,1.10
2022-09-28T09:07:28.365Z,0.98
2022-09-28T09:10:18.382Z,0.57
2022-09-28T09:15:33.685Z,0.95
2022-09-28T09:18:15.488Z,1.40
2022-09-28T09:20:56.682Z,0.70
2022-09-28T09:23:39.150Z,0.40
2022-09-28T09:26:14.802Z,0.40
2022-09-28T09:28:50.125Z,0.50
2022-09-28T09:31:27.533Z,1.17
2022-09-28T09:34:17.891Z,1.30
2022-09-28T09:37:04.129Z,0.93
2022-09-28T09:40:09.252Z,0.35
2022-09-28T09:43:01.268Z,0.43
2022-09-28T09:45:46.804Z,1.20
2022-09-28T09:48:37.587Z,1.33
2022-09-28T09:51:07.486Z,0.90
2022-09-28T09:53:38.732Z,1.17
2022-09-28T09:56:14.267Z,0.90
2022-09-28T09:59:02.532Z,1.02
2022-09-28T10:01:40.025Z,1.17
2022-09-28T10:04:37.123Z,1.17
2022-09-28T10:07:16.990Z,1.20
2022-09-28T10:09:46.186Z,0.90
2022-09-28T10:12:31.048Z,1.30
2022-09-28T10:15:00.051Z,1.08
2022-09-28T10:17:28.836Z,1.48
2022-09-28T10:20:29.163Z,1.10
2022-09-28T10:23:03.191Z,0.75
2022-09-28T10:25:31.196Z,1.20
2022-09-28T10:28:01.809Z,0.80
2022-09-28T10:30:32.408Z,1.25
2022-09-28T10:33:01.383Z,1.10
2022-09-28T10:35:41.381Z,1.00
2022-09-28T10:38:15.497Z,1.25
2022-09-28T10:40:44.383Z,0.90
2022-09-28T10:43:22.614Z,0.93
2022-09-28T10:46:00.839Z,1.33
2022-09-28T10:48:29.479Z,1.73
2022-09-28T10:51:01.573Z,1.50
2022-09-28T10:53:29.215Z,1.05
2022-09-28T10:56:37.067Z,2.10
2022-09-28T10:59:23.677Z,1.45
2022-09-28T11:01:54.430Z,1.13
2022-09-28T11:04:24.412Z,1.60
2022-09-28T11:06:52.279Z,2.03
2022-09-28T11:09:28.475Z,2.03
2022-09-28T11:12:01.311Z,1.40
2022-09-28T11:14:39.608Z,1.15
2022-09-28T11:17:19.838Z,1.10
2022-09-28T11:19:48.693Z,1.85
2022-09-28T11:22:28.860Z,2.30
2022-09-28T11:25:14.221Z,1.83
2022-09-28T11:27:41.986Z,1.73
2022-09-28T11:30:22.714Z,1.95
2022-09-28T11:33:27.497Z,1.77
2022-09-28T11:36:24.269Z,1.83
2022-09-28T11:38:56.812Z,1.23
2022-09-28T11:41:43.264Z,1.50
2022-09-28T11:44:32.503Z,1.33
2022-09-28T11:47:28.358Z,1.85
2022-09-28T11:50:00.543Z,2.05
2022-09-28T11:52:30.238Z,3.03
2022-09-28T11:54:59.590Z,3.42
2022-09-28T11:57:29.540Z,2.90
2022-09-28T11:59:59.050Z,1.50
2022-09-28T12:02:28.698Z,1.77
2022-09-28T12:05:14.895Z,0.50
2022-09-28T12:07:48.146Z,0.80
2022-09-28T12:10:44.690Z,1.27
2022-09-28T12:13:15.578Z,1.52
2022-09-28T12:16:17.137Z,0.82
2022-09-28T12:18:38.376Z,1.10
2022-09-28T12:21:13.189Z,1.30
2022-09-28T12:23:42.335Z,1.10
2022-09-28T12:26:18.122Z,0.85
2022-09-28T12:28:48.599Z,1.15
2022-09-28T12:31:18.222Z,1.02
2022-09-28T12:33:47.484Z,1.00
2022-09-28T12:36:20.610Z,1.33
2022-09-28T12:39:17.692Z,1.15
2022-09-28T12:41:50.112Z,1.10
2022-09-28T12:44:26.551Z,1.20
2022-09-28T12:47:05.522Z,1.30
2022-09-28T12:50:36.346Z,1.45
2022-09-28T12:52:38.394Z,1.35
2022-09-28T12:55:17.433Z,1.20
2022-09-28T12:57:49.397Z,0.80
2022-09-28T13:00:18.281Z,0.73
2022-09-28T13:02:54.074Z,0.80
2022-09-28T13:05:30.564Z,0.50
2022-09-28T13:08:04.481Z,0.60
2022-09-28T13:10:34.737Z,0.73
2022-09-28T13:13:13.443Z,0.60
2022-09-28T13:15:44.454Z,0.63
2022-09-28T13:18:15.682Z,0.60
2022-09-28T13:20:49.085Z,0.43
2022-09-28T13:23:20.648Z,0.73
2022-09-28T13:25:51.449Z,0.80
2022-09-28T13:28:21.282Z,0.60
2022-09-28T13:30:52.335Z,0.70
2022-09-28T13:33:24.135Z,0.68
2022-09-28T13:35:51.700Z,0.60
2022-09-28T13:38:43.898Z,0.65
2022-09-28T13:41:29.156Z,0.40
2022-09-28T13:44:16.631Z,0.60
2022-09-28T13:46:49.425Z,0.40
2022-09-28T13:49:19.257Z,0.50
2022-09-28T13:51:52.748Z,0.43
2022-09-28T13:54:37.071Z,0.70
2022-09-28T13:57:13.406Z,0.55
2022-09-28T13:59:49.627Z,0.75
2022-09-28T14:02:31.661Z,0.60
2022-09-28T14:05:00.195Z,0.80
2022-09-28T14:07:57.267Z,0.52
2022-09-28T14:10:46.284Z,0.60
2022-09-28T14:13:13.949Z,0.50
2022-09-28T14:15:47.650Z,0.70
2022-09-28T14:18:19.133Z,0.52
2022-09-28T14:20:51.642Z,0.50
2022-09-28T14:23:26.213Z,0.60
2022-09-28T14:26:04.144Z,0.70
2022-09-28T14:28:38.363Z,0.52
2022-09-28T14:31:08.886Z,0.85
2022-09-28T14:33:38.782Z,1.15
2022-09-28T14:36:07.432Z,0.85
2022-09-28T14:38:54.489Z,1.20
2022-09-28T14:41:34.466Z,0.70
2022-09-28T14:44:03.648Z,1.02
2022-09-28T14:46:36.090Z,0.60
2022-09-28T14:49:04.712Z,1.00
2022-09-28T14:51:45.650Z,0.55
2022-09-28T14:54:18.184Z,0.50
2022-09-28T14:56:50.726Z,0.47
2022-09-28T14:59:18.720Z,0.43
2022-09-28T15:01:48.152Z,0.60
2022-09-28T15:04:16.421Z,0.60
2022-09-28T15:06:48.754Z,0.70
2022-09-28T15:09:28.620Z,0.70
2022-09-28T15:12:01.341Z,0.55
2022-09-28T15:14:31.682Z,0.70
2022-09-28T15:17:02.012Z,0.40
2022-09-28T15:19:32.558Z,0.57
2022-09-28T15:22:00.196Z,0.55
2022-09-28T15:24:31.343Z,0.60
2022-09-28T15:26:59.001Z,0.60
2022-09-28T15:29:31.316Z,0.50
2022-09-28T15:31:59.112Z,0.60
2022-09-28T15:34:48.412Z,0.77
2022-09-28T15:37:17.761Z,0.60
2022-09-28T15:39:48.317Z,0.80
2022-09-28T15:42:17.503Z,0.63
2022-09-28T15:45:00.553Z,0.70
2022-09-28T15:47:29.006Z,0.60
2022-09-28T15:49:58.637Z,1.10
2022-09-28T15:52:28.281Z,0.50
2022-09-28T15:54:56.471Z,0.40
2022-09-28T15:57:35.385Z,0.60
2022-09-28T16:00:05.931Z,0.70
2022-09-28T16:02:39.665Z,0.50
2022-09-28T16:05:29.903Z,0.77
2022-09-28T16:07:57.495Z,0.40
2022-09-28T16:10:35.733Z,0.80
2022-09-28T16:13:15.469Z,0.80
2022-09-28T16:15:44.740Z,0.60
2022-09-28T16:18:20.646Z,0.68
2022-09-28T16:20:49.492Z,0.60
2022-09-28T16:23:27.929Z,0.80
2022-09-28T16:25:58.703Z,0.60
2022-09-28T16:28:31.339Z,0.70
2022-09-28T16:31:04.115Z,0.65
2022-09-28T16:33:38.825Z,0.60
2022-09-28T16:36:11.821Z,0.80
2022-09-28T16:38:39.503Z,2.33
2022-09-28T16:41:07.292Z,1.67
2022-09-28T16:43:36.598Z,1.38
2022-09-28T16:46:09.165Z,1.70
2022-09-28T16:48:39.430Z,2.20
2022-09-28T16:51:07.120Z,1.58
2022-09-28T16:53:52.196Z,1.65
2022-09-28T16:56:19.772Z,2.10
2022-09-28T16:58:49.340Z,1.50
2022-09-28T17:01:18.287Z,1.27
2022-09-28T17:03:47.372Z,1.25
2022-09-28T17:06:15.207Z,2.00
2022-09-28T17:08:43.014Z,1.80
2022-09-28T17:11:16.899Z,1.88
2022-09-28T17:13:48.177Z,1.35
2022-09-28T17:16:17.767Z,1.27
2022-09-28T17:18:48.223Z,0.70
2022-09-28T17:21:16.710Z,1.20
2022-09-28T17:23:44.381Z,1.00
2022-09-28T17:26:17.181Z,1.10
2022-09-28T17:28:44.862Z,1.13
2022-09-28T17:31:14.951Z,1.08
2022-09-28T17:33:42.580Z,1.15
2022-09-28T17:36:14.452Z,1.38
2022-09-28T17:38:42.533Z,1.23
2022-09-28T17:41:11.963Z,1.48
2022-09-28T17:43:41.209Z,1.20
2022-09-28T17:46:17.396Z,1.40
2022-09-28T17:48:46.660Z,1.40
2022-09-28T17:51:15.551Z,1.60
2022-09-28T17:53:43.066Z,1.42
2022-09-28T17:56:10.762Z,1.52
2022-09-28T17:58:38.812Z,1.52
2022-09-28T18:01:06.533Z,1.70
2022-09-28T18:03:34.186Z,1.42
2022-09-28T18:06:04.175Z,2.40
2022-09-28T18:08:33.884Z,2.33
2022-09-28T18:11:02.618Z,2.47
2022-09-28T18:13:30.195Z,2.45
2022-09-28T18:15:57.852Z,2.47
2022-09-28T18:18:25.913Z,2.45
2022-09-28T18:20:53.611Z,2.47
2022-09-28T18:23:21.261Z,2.42
2022-09-28T18:25:50.168Z,3.28
2022-09-28T18:28:17.753Z,2.30
2022-09-28T18:30:45.930Z,2.50
2022-09-28T18:33:14.412Z,2.47
2022-09-28T18:35:42.265Z,2.78
2022-09-28T18:38:09.845Z,2.72
2022-09-28T18:40:37.720Z,2.30
2022-09-28T18:43:06.678Z,2.00
2022-09-28T18:45:35.746Z,2.22
2022-09-28T18:48:03.352Z,2.33
2022-09-28T18:50:30.921Z,1.90
2022-09-28T18:53:11.343Z,1.98
2022-09-28T18:55:39.870Z,1.92
2022-09-28T18:58:09.785Z,2.00
2022-09-28T19:00:39.010Z,2.22
2022-09-28T19:03:06.939Z,2.55
2022-09-28T19:05:35.083Z,2.63
2022-09-28T19:08:02.927Z,2.45
2022-09-28T19:10:30.519Z,2.33
2022-09-28T19:12:58.111Z,2.40
2022-09-28T19:15:27.002Z,2.88
2022-09-28T19:17:54.717Z,2.30
2022-09-28T19:20:22.292Z,2.30
2022-09-28T19:22:50.032Z,3.00
2022-09-28T19:25:17.637Z,2.83
2022-09-28T19:27:47.928Z,2.55
2022-09-28T19:30:15.559Z,2.13
2022-09-28T19:32:44.525Z,2.20
2022-09-28T19:35:12.132Z,2.45
2022-09-28T19:37:39.753Z,2.15
2022-09-28T19:40:07.850Z,2.65
2022-09-28T19:42:36.185Z,2.45
2022-09-28T19:45:03.867Z,2.03
2022-09-28T19:47:31.810Z,2.80
2022-09-28T19:50:01.644Z,3.08
2022-09-28T19:52:29.840Z,3.20
2022-09-28T19:54:57.621Z,2.67
2022-09-28T19:57:25.959Z,2.75
2022-09-28T19:59:57.834Z,2.85
2022-09-28T20:02:28.693Z,5.28
2022-09-28T20:04:56.294Z,3.75
2022-09-28T20:07:25.209Z,3.60
2022-09-28T20:09:52.827Z,3.03
2022-09-28T20:12:20.442Z,3.60
2022-09-28T20:14:47.977Z,2.88
2022-09-28T20:17:15.571Z,3.15
2022-09-28T20:19:43.130Z,3.13
2022-09-28T20:22:12.101Z,2.92
2022-09-28T20:24:41.063Z,2.85
2022-09-28T20:27:08.671Z,2.40
2022-09-28T20:29:36.266Z,2.80
2022-09-28T20:32:04.863Z,2.95
2022-09-28T20:34:33.504Z,3.08
2022-09-28T20:37:01.225Z,2.92
2022-09-28T20:39:29.200Z,3.15
2022-09-28T20:41:58.158Z,3.40
2022-09-28T20:44:25.735Z,3.10
2022-09-28T20:46:53.494Z,2.90
2022-09-28T20:49:21.644Z,3.08
2022-09-28T20:51:49.233Z,2.72
2022-09-28T20:54:16.926Z,2.58
2022-09-28T20:56:44.546Z,3.05
2022-09-28T20:59:13.764Z,2.60
2022-09-28T21:01:41.822Z,2.75
2022-09-28T21:04:10.192Z,2.80
2022-09-28T21:06:38.397Z,2.33
2022-09-28T21:09:06.622Z,2.45
2022-09-28T21:11:35.645Z,2.53
2022-09-28T21:14:05.114Z,3.35
2022-09-28T21:16:34.670Z,2.55
2022-09-28T21:19:02.409Z,2.47
2022-09-28T21:21:30.051Z,3.05
2022-09-28T21:23:58.387Z,2.83
2022-09-28T21:26:26.766Z,2.33
2022-09-28T21:28:54.609Z,2.50
2022-09-28T21:31:27.526Z,2.47
2022-09-28T21:33:57.794Z,2.58
2022-09-28T21:36:25.618Z,2.63
2022-09-28T21:38:54.167Z,3.10
2022-09-28T21:41:21.727Z,2.72
2022-09-28T21:43:49.309Z,2.95
2022-09-28T21:46:17.495Z,2.85
2022-09-28T21:48:45.265Z,2.58
2022-09-28T21:51:15.400Z,2.60
2022-09-28T21:53:43.613Z,2.63
2022-09-28T21:56:12.284Z,2.33
2022-09-28T21:58:40.209Z,2.42
2022-09-28T22:01:09.057Z,2.50
2022-09-28T22:03:37.512Z,2.92
2022-09-28T22:06:05.622Z,2.85
2022-09-28T22:08:34.981Z,2.25
2022-09-28T22:11:03.776Z,2.22
2022-09-28T22:13:32.086Z,2.58
2022-09-28T22:15:59.949Z,2.63
2022-09-28T22:18:28.341Z,2.60
2022-09-28T22:20:59.512Z,2.30
2022-09-28T22:23:27.245Z,2.80
2022-09-28T22:26:00.099Z,2.33
2022-09-28T22:28:27.746Z,2.22
2022-09-28T22:30:55.351Z,2.00
2022-09-28T22:33:22.962Z,2.72
2022-09-28T22:35:51.288Z,2.30
2022-09-28T22:38:19.147Z,2.28
2022-09-28T22:40:49.917Z,2.50
2022-09-28T22:43:19.275Z,2.00
2022-09-28T22:45:46.879Z,2.10
2022-09-28T22:48:14.796Z,2.22
2022-09-28T22:50:48.727Z,2.20
2022-09-28T22:53:16.333Z,2.30
2022-09-28T22:55:43.934Z,2.28
2022-09-28T22:58:11.747Z,2.20
2022-09-28T23:00:40.674Z,2.22
2022-09-28T23:03:08.344Z,2.20
2022-09-28T23:05:35.910Z,2.45
2022-09-28T23:08:03.671Z,2.40
2022-09-28T23:10:31.270Z,2.08
2022-09-28T23:12:59.148Z,2.30
2022-09-28T23:15:27.943Z,2.53
2022-09-28T23:17:56.864Z,2.78
2022-09-28T23:20:24.656Z,2.00
2022-09-28T23:22:52.266Z,2.60
2022-09-28T23:25:20.299Z,2.35
2022-09-28T23:27:48.203Z,2.50
2022-09-28T23:30:16.059Z,2.33
2022-09-28T23:32:43.784Z,2.28
2022-09-28T23:35:13.049Z,2.30
2022-09-28T23:37:40.673Z,2.28
2022-09-28T23:40:08.534Z,2.45
2022-09-28T23:42:36.136Z,2.25
2022-09-28T23:45:03.717Z,2.50
2022-09-28T23:47:31.327Z,2.38
2022-09-28T23:49:59.015Z,2.15
2022-09-28T23:52:28.013Z,2.55
2022-09-28T23:54:55.592Z,2.80
2022-09-28T23:57:23.174Z,2.28
2022-09-28T23:59:50.742Z,2.50
